Thunder radar more information blitzortung!


Radar de pluja more information rain snow radar


Visita la nostra xarxa de llocs de meteo:

Template documentation
and downloads

And another site



No particular awareness of the weather is required.    There are no Weather-warnings

Pagina Historial Weather Underground text

Diari Resum Novembre 20, 2017 Unitats:  Mètric    Imperial   Tant
« Previous Dia
SegĂźent Dia »
Diari Setmana Mensual Anual Personalitzada
  Maxima: Minima: Media:
Temperatura: 17.3 °C 4.1 °C 11.2 °C
Punt de rosada: 5.6 °C -1.1 °C 2.4 °C
Humitat: 71 % 45 % 55 %
Wind Speed: 9.3 km/h 0.0 km/h 2.4 km/h
RĂ fegues de vent: 9.3 km/h - -
Vent:- - South
Pression baro: 1024.9 hPa 1020.9 hPa -
Precipitacions: 0.0 mm    
Historical Graphs
 
 
Dades de taula per Novembre 20, 2017
Temps Temperatura Punt de rosada Pression baro Vent Wind Speed RĂ fegues de vent Humitat Rainfall Rate (Hourly)
00:04 7.4 °C 0.6 °C 1023.9 hPa Calm     62 % 0.0 mm
00:10 4.4 °C -0.8 °C 1023.9 hPa Calm   3.2 km/h 69 % 0.0 mm
00:20 4.3 °C -0.9 °C 1023.9 hPa Calm   3.2 km/h 69 % 0.0 mm
00:30 4.3 °C -0.9 °C 1022.9 hPa Calm   1.6 km/h 69 % 0.0 mm
00:40 4.1 °C -1.1 °C 1022.9 hPa Calm   3.2 km/h 69 % 0.0 mm
00:50 4.2 °C -1.0 °C 1022.9 hPa WNW 1.6 km/h 3.2 km/h 69 % 0.0 mm
01:00 4.2 °C -1.0 °C 1023.9 hPa Calm   3.2 km/h 69 % 0.0 mm
01:10 4.2 °C -0.8 °C 1023.9 hPa West 1.6 km/h 1.6 km/h 70 % 0.0 mm
01:20 4.2 °C -0.8 °C 1023.9 hPa NW 1.6 km/h 1.6 km/h 70 % 0.0 mm
01:30 4.2 °C -0.8 °C 1023.9 hPa NW 1.6 km/h 3.2 km/h 70 % 0.0 mm
01:40 4.3 °C -0.7 °C 1022.9 hPa Calm   3.2 km/h 70 % 0.0 mm
01:50 4.3 °C -0.5 °C 1022.9 hPa Calm   1.6 km/h 71 % 0.0 mm
02:00 4.3 °C -0.5 °C 1022.9 hPa Calm   3.2 km/h 71 % 0.0 mm
02:10 4.3 °C -0.7 °C 1022.9 hPa NNE 1.6 km/h 3.2 km/h 70 % 0.0 mm
02:20 4.5 °C -0.5 °C 1022.9 hPa WNW 1.6 km/h 1.6 km/h 70 % 0.0 mm
02:30 4.7 °C -0.1 °C 1023.9 hPa Calm   3.2 km/h 71 % 0.0 mm
02:40 5.0 °C 0.0 °C 1022.9 hPa WSW 1.6 km/h 3.2 km/h 70 % 0.0 mm
02:50 5.4 °C 0.4 °C 1022.9 hPa WSW 3.2 km/h 3.2 km/h 70 % 0.0 mm
03:00 5.7 °C 0.7 °C 1023.9 hPa SW 1.6 km/h 3.2 km/h 70 % 0.0 mm
03:10 6.2 °C 0.9 °C 1023.9 hPa SW 1.6 km/h 1.6 km/h 69 % 0.0 mm
03:20 7.0 °C 1.7 °C 1023.9 hPa Calm   3.2 km/h 69 % 0.0 mm
03:30 7.6 °C 1.8 °C 1023.9 hPa SSE 1.6 km/h 1.6 km/h 67 % 0.0 mm
03:40 7.6 °C 1.7 °C 1023.9 hPa East 3.2 km/h 3.2 km/h 66 % 0.0 mm
03:50 8.1 °C 1.9 °C 1023.9 hPa NE 1.6 km/h 3.2 km/h 65 % 0.0 mm
04:00 8.8 °C 2.3 °C 1023.9 hPa NE 1.6 km/h 6.4 km/h 64 % 0.0 mm
04:10 8.6 °C 1.9 °C 1023.9 hPa NE 3.2 km/h 4.8 km/h 63 % 0.0 mm
04:20 9.5 °C 2.8 °C 1023.9 hPa Calm   3.2 km/h 63 % 0.0 mm
04:30 10.0 °C 3.1 °C 1023.9 hPa ENE 1.6 km/h 3.2 km/h 62 % 0.0 mm
04:40 10.7 °C 3.7 °C 1024.9 hPa ENE 1.6 km/h 3.2 km/h 62 % 0.0 mm
10:46 11.4 °C 3.9 °C 1024.9 hPa East 4.2 km/h 4.2 km/h 60 % 0.0 mm
11:01 11.6 °C 3.8 °C 1024.9 hPa ENE 3.7 km/h 3.7 km/h 59 % 0.0 mm
11:06 11.6 °C 3.6 °C 1024.9 hPa NNE 3.7 km/h 3.7 km/h 58 % 0.0 mm
11:16 11.9 °C 3.9 °C 1024.9 hPa NE 3.7 km/h 3.7 km/h 58 % 0.0 mm
11:21 12.2 °C 4.2 °C 1024.9 hPa NNE 1.9 km/h 1.9 km/h 58 % 0.0 mm
11:36 12.7 °C 4.4 °C 1024.9 hPa ENE 3.9 km/h 3.9 km/h 57 % 0.0 mm
11:46 12.9 °C 4.6 °C 1024.9 hPa NE 3.7 km/h 3.7 km/h 57 % 0.0 mm
11:51 12.9 °C 4.6 °C 1024.9 hPa ENE 3.7 km/h 3.7 km/h 57 % 0.0 mm
11:56 13.1 °C 4.5 °C 1024.9 hPa NE 4.2 km/h 4.2 km/h 56 % 0.0 mm
12:01 13.3 °C 4.7 °C 1024.9 hPa ENE 3.7 km/h 3.7 km/h 56 % 0.0 mm
12:11 13.6 °C 5.0 °C 1024.9 hPa NW 4.2 km/h 4.2 km/h 56 % 0.0 mm
12:16 13.7 °C 5.1 °C 1024.9 hPa NNW 3.7 km/h 3.7 km/h 56 % 0.0 mm
12:21 14.0 °C 5.3 °C 1023.9 hPa NNE 2.3 km/h   56 % 0.0 mm
12:26 14.2 °C 5.3 °C 1023.9 hPa NNW 1.9 km/h   55 % 0.0 mm
12:36 14.1 °C 4.9 °C 1022.9 hPa NE 3.7 km/h   54 % 0.0 mm
12:41 14.2 °C 5.0 °C 1022.9 hPa NNE 4.2 km/h 4.2 km/h 54 % 0.0 mm
12:56 14.4 °C 4.9 °C 1022.9 hPa East 5.6 km/h 5.6 km/h 53 % 0.0 mm
13:01 14.5 °C 5.0 °C 1022.9 hPa SE 4.2 km/h   53 % 0.0 mm
13:06 14.5 °C 4.8 °C 1022.9 hPa ESE 5.6 km/h 5.6 km/h 52 % 0.0 mm
13:21 15.0 °C 5.5 °C 1022.9 hPa NE 3.9 km/h   53 % 0.0 mm
13:26 15.1 °C 5.6 °C 1022.9 hPa NNE 5.6 km/h 5.6 km/h 53 % 0.0 mm
13:36 15.0 °C 5.2 °C 1022.9 hPa ENE 5.6 km/h 5.6 km/h 52 % 0.0 mm
13:41 15.2 °C 5.4 °C 1022.9 hPa NNE 3.9 km/h 3.9 km/h 52 % 0.0 mm
13:46 15.3 °C 5.5 °C 1022.9 hPa NW 3.7 km/h 3.7 km/h 52 % 0.0 mm
13:51 15.3 °C 5.2 °C 1022.9 hPa ESE 7.4 km/h 7.4 km/h 51 % 0.0 mm
13:56 15.4 °C 5.3 °C 1022.9 hPa ENE 3.7 km/h 3.7 km/h 51 % 0.0 mm
14:01 15.4 °C 5.3 °C 1022.9 hPa NNE 5.3 km/h 5.3 km/h 51 % 0.0 mm
14:06 15.3 °C 5.2 °C 1022.9 hPa NNW 3.7 km/h 3.7 km/h 51 % 0.0 mm
14:21 15.6 °C 4.9 °C 1022.9 hPa ESE 9.3 km/h 9.3 km/h 49 % 0.0 mm
14:36 16.1 °C 5.4 °C 1022.9 hPa ESE 3.7 km/h 3.7 km/h 49 % 0.0 mm
14:42 16.0 °C 5.3 °C 1022.9 hPa East 3.7 km/h 3.7 km/h 49 % 0.0 mm
14:52 15.9 °C 4.9 °C 1021.9 hPa ESE 5.6 km/h 5.6 km/h 48 % 0.0 mm
14:57 16.0 °C 5.0 °C 1021.9 hPa ESE 5.6 km/h 5.6 km/h 48 % 0.0 mm
15:02 16.1 °C 5.1 °C 1022.9 hPa SSE 1.9 km/h   48 % 0.0 mm
15:12 16.1 °C 4.8 °C 1022.9 hPa East 5.6 km/h 5.6 km/h 47 % 0.0 mm
15:17 16.1 °C 4.8 °C 1022.9 hPa SE 5.6 km/h 5.6 km/h 47 % 0.0 mm
15:22 16.2 °C 4.9 °C 1022.9 hPa ENE 3.7 km/h 3.7 km/h 47 % 0.0 mm
15:32 16.5 °C 5.2 °C 1022.9 hPa SSE 1.9 km/h   47 % 0.0 mm
15:37 16.5 °C 5.4 °C 1022.9 hPa Calm     48 % 0.0 mm
15:52 16.6 °C 5.2 °C 1022.9 hPa East 2.6 km/h 2.6 km/h 47 % 0.0 mm
15:57 16.6 °C 5.2 °C 1022.9 hPa Calm     47 % 0.0 mm
16:02 16.6 °C 5.2 °C 1022.9 hPa NW 2.6 km/h 2.6 km/h 47 % 0.0 mm
16:27 17.3 °C 5.6 °C 1022.9 hPa SW 3.9 km/h 3.9 km/h 46 % 0.0 mm
16:37 17.3 °C 5.6 °C 1021.9 hPa SW 1.9 km/h   46 % 0.0 mm
16:42 17.3 °C 5.2 °C 1021.9 hPa SW 1.9 km/h   45 % 0.0 mm
16:52 17.0 °C 4.9 °C 1021.9 hPa SW 1.9 km/h 1.9 km/h 45 % 0.0 mm
16:57 17.0 °C 4.9 °C 1021.9 hPa SW 1.9 km/h 1.9 km/h 45 % 0.0 mm
17:02 16.8 °C 5.4 °C 1022.9 hPa Calm     47 % 0.0 mm
17:07 16.5 °C 5.4 °C 1022.9 hPa WSW 3.7 km/h 3.7 km/h 48 % 0.0 mm
17:17 15.4 °C 4.4 °C 1022.9 hPa Calm     48 % 0.0 mm
17:22 15.1 °C 4.2 °C 1022.9 hPa West 3.7 km/h 3.7 km/h 48 % 0.0 mm
17:27 14.9 °C 4.0 °C 1022.9 hPa Calm     48 % 0.0 mm
17:32 14.6 °C 3.7 °C 1022.9 hPa WSW 3.7 km/h 3.7 km/h 48 % 0.0 mm
17:37 14.3 °C 3.4 °C 1022.9 hPa WSW 3.7 km/h 3.7 km/h 48 % 0.0 mm
17:47 13.9 °C 3.1 °C 1022.9 hPa West 3.7 km/h 3.7 km/h 48 % 0.0 mm
17:52 13.7 °C 2.9 °C 1022.9 hPa WSW 4.7 km/h 4.7 km/h 48 % 0.0 mm
17:57 13.5 °C 2.7 °C 1022.9 hPa SW 5.6 km/h 5.6 km/h 48 % 0.0 mm
18:07 13.3 °C 2.8 °C 1021.9 hPa SW 3.9 km/h 3.9 km/h 49 % 0.0 mm
18:12 13.2 °C 2.7 °C 1021.9 hPa WSW 3.7 km/h 3.7 km/h 49 % 0.0 mm
18:17 13.1 °C 2.6 °C 1021.9 hPa West 3.7 km/h 3.7 km/h 49 % 0.0 mm
18:22 13.0 °C 2.5 °C 1021.9 hPa West 5.6 km/h 5.6 km/h 49 % 0.0 mm
18:27 12.8 °C 2.3 °C 1021.9 hPa West 5.6 km/h 5.6 km/h 49 % 0.0 mm
18:32 12.8 °C 2.3 °C 1021.9 hPa WSW 5.6 km/h 5.6 km/h 49 % 0.0 mm
18:37 12.7 °C 2.2 °C 1021.9 hPa West 5.0 km/h 5.0 km/h 49 % 0.0 mm
18:42 12.7 °C 2.2 °C 1021.9 hPa WSW 3.9 km/h 3.9 km/h 49 % 0.0 mm
18:47 12.6 °C 2.2 °C 1021.9 hPa West 5.6 km/h 5.6 km/h 49 % 0.0 mm
18:52 12.5 °C 2.1 °C 1021.9 hPa SW 7.4 km/h 7.4 km/h 49 % 0.0 mm
18:57 12.4 °C 1.9 °C 1021.9 hPa WSW 5.3 km/h 5.3 km/h 49 % 0.0 mm
19:13 12.1 °C 2.0 °C 1021.9 hPa WSW 3.9 km/h 3.9 km/h 50 % 0.0 mm
19:23 12.0 °C 1.9 °C 1022.9 hPa WSW 3.7 km/h 3.7 km/h 50 % 0.0 mm
19:28 11.8 °C 1.7 °C 1022.9 hPa WSW 3.7 km/h 3.7 km/h 50 % 0.0 mm
19:33 11.7 °C 1.6 °C 1022.9 hPa SW 3.7 km/h 3.7 km/h 50 % 0.0 mm
19:38 11.6 °C 1.5 °C 1022.9 hPa SW 2.3 km/h 2.3 km/h 50 % 0.0 mm
19:43 11.5 °C 1.7 °C 1022.9 hPa Calm     51 % 0.0 mm
19:45 11.5 °C 1.7 °C 1022.9 hPa Calm     51 % 0.0 mm
20:00 11.2 °C 1.4 °C 1022.9 hPa Calm     51 % 0.0 mm
20:10 11.4 °C 1.6 °C 1022.9 hPa WSW 3.7 km/h 3.7 km/h 51 % 0.0 mm
20:20 11.2 °C 1.4 °C 1022.9 hPa Calm     51 % 0.0 mm
20:25 11.1 °C 1.6 °C 1022.9 hPa Calm     52 % 0.0 mm
20:30 10.8 °C 1.3 °C 1022.9 hPa Calm     52 % 0.0 mm
20:40 10.5 °C 1.1 °C 1022.9 hPa Calm     52 % 0.0 mm
20:45 10.4 °C 0.9 °C 1022.9 hPa Calm     52 % 0.0 mm
20:50 10.2 °C 0.8 °C 1022.9 hPa Calm     52 % 0.0 mm
20:55 10.2 °C 1.1 °C 1022.9 hPa Calm     53 % 0.0 mm
21:05 10.2 °C 1.1 °C 1022.9 hPa SW 3.7 km/h 3.7 km/h 53 % 0.0 mm
21:16 10.0 °C 0.8 °C 1022.9 hPa WSW 1.9 km/h   53 % 0.0 mm
21:36 9.7 °C 0.6 °C 1022.9 hPa Calm     53 % 0.0 mm
21:41 9.6 °C 0.5 °C 1022.9 hPa Calm     53 % 0.0 mm
21:46 9.4 °C 0.3 °C 1022.9 hPa WSW 3.7 km/h 3.7 km/h 53 % 0.0 mm
21:51 9.3 °C 0.4 °C 1023.9 hPa West 3.7 km/h   54 % 0.0 mm
21:56 9.2 °C 0.4 °C 1023.9 hPa Calm     54 % 0.0 mm
22:01 9.0 °C 0.2 °C 1023.9 hPa Calm     54 % 0.0 mm
22:06 9.0 °C 0.2 °C 1022.9 hPa Calm     54 % 0.0 mm
22:11 8.9 °C 0.1 °C 1022.9 hPa Calm     54 % 0.0 mm
22:31 8.8 °C 0.2 °C 1022.9 hPa Calm     55 % 0.0 mm
22:36 8.7 °C 0.2 °C 1022.9 hPa Calm     55 % 0.0 mm
22:41 8.6 °C 0.1 °C 1022.9 hPa Calm     55 % 0.0 mm
22:46 8.5 °C -0.1 °C 1022.9 hPa Calm     55 % 0.0 mm
22:51 8.5 °C -0.1 °C 1023.9 hPa Calm     55 % 0.0 mm
22:56 8.6 °C 0.3 °C 1023.9 hPa Calm     56 % 0.0 mm
23:01 8.6 °C 0.3 °C 1023.9 hPa Calm     56 % 0.0 mm
23:06 8.5 °C 0.2 °C 1022.9 hPa Calm     56 % 0.0 mm
23:11 8.4 °C 0.1 °C 1022.9 hPa Calm     56 % 0.0 mm
23:21 8.1 °C 0.1 °C 1022.9 hPa NNE 1.9 km/h   57 % 0.0 mm
23:26 7.9 °C -0.1 °C 1022.9 hPa WSW 3.7 km/h 3.7 km/h 57 % 0.0 mm
23:36 7.5 °C -0.2 °C 1023.9 hPa WSW 2.6 km/h   58 % 0.0 mm
23:40 6.1 °C -1.1 °C 1020.9 hPa NNW 1.6 km/h 3.2 km/h 60 % 0.0 mm
23:41 7.4 °C -0.3 °C 1023.9 hPa Calm     58 % 0.0 mm
23:50 6.1 °C -1.1 °C 1020.9 hPa NNW 1.6 km/h 3.2 km/h 60 % 0.0 mm
23:52 7.2 °C -0.3 °C 1023.9 hPa Calm     59 % 0.0 mm
23:57 7.1 °C -0.4 °C 1023.9 hPa Calm     59 % 0.0 mm
23:58 7.1 °C -0.6 °C 1023.9 hPa Calm     58 % 0.0 mm
Meteo Sesrovires
Elogis d' Weather Underground - 3.25 mb

Guio original per  Jim McMurry - jmcmurry@mwt.net Adaptat per a la plantilla per  Wim van der Kuil - Leuven-Template.eu

Trobareu la nostra informacio del temps tambe a:

Weather Underground

AWEKAS